sensor_id;sensor_type;location;lat;lon;timestamp;temperature;humidity
19552;DHT22;9921;47.186;9.778;2023-06-24T00:02:02;16.70;99.90
19552;DHT22;9921;47.186;9.778;2023-06-24T00:04:28;16.60;99.90
19552;DHT22;9921;47.186;9.778;2023-06-24T00:06:57;16.60;99.90
19552;DHT22;9921;47.186;9.778;2023-06-24T00:09:25;16.60;99.90
19552;DHT22;9921;47.186;9.778;2023-06-24T00:11:53;16.70;99.90
19552;DHT22;9921;47.186;9.778;2023-06-24T00:14:20;16.70;99.90
19552;DHT22;9921;47.186;9.778;2023-06-24T00:16:49;16.70;99.90
19552;DHT22;9921;47.186;9.778;2023-06-24T00:19:18;16.60;99.90
19552;DHT22;9921;47.186;9.778;2023-06-24T00:21:45;16.50;99.90
19552;DHT22;9921;47.186;9.778;2023-06-24T00:24:13;16.40;99.90
19552;DHT22;9921;47.186;9.778;2023-06-24T00:26:40;16.40;99.90
19552;DHT22;9921;47.186;9.778;2023-06-24T00:29:07;16.50;99.90
19552;DHT22;9921;47.186;9.778;2023-06-24T00:31:34;16.50;99.90
19552;DHT22;9921;47.186;9.778;2023-06-24T00:34:01;16.50;99.90
19552;DHT22;9921;47.186;9.778;2023-06-24T00:36:28;16.50;99.90
19552;DHT22;9921;47.186;9.778;2023-06-24T00:38:57;16.40;99.90
19552;DHT22;9921;47.186;9.778;2023-06-24T00:41:29;16.40;99.90
19552;DHT22;9921;47.186;9.778;2023-06-24T00:43:56;16.30;99.90
19552;DHT22;9921;47.186;9.778;2023-06-24T00:46:24;16.30;99.90
19552;DHT22;9921;47.186;9.778;2023-06-24T00:48:51;16.30;99.90
19552;DHT22;9921;47.186;9.778;2023-06-24T00:51:18;16.30;99.90
19552;DHT22;9921;47.186;9.778;2023-06-24T00:53:46;16.30;99.90
19552;DHT22;9921;47.186;9.778;2023-06-24T00:56:16;16.40;99.90
19552;DHT22;9921;47.186;9.778;2023-06-24T00:58:45;16.40;99.90
19552;DHT22;9921;47.186;9.778;2023-06-24T01:01:13;16.50;99.90
19552;DHT22;9921;47.186;9.778;2023-06-24T01:03:40;16.40;99.90
19552;DHT22;9921;47.186;9.778;2023-06-24T01:06:08;16.30;99.90
19552;DHT22;9921;47.186;9.778;2023-06-24T01:08:35;16.30;99.90
19552;DHT22;9921;47.186;9.778;2023-06-24T01:11:03;16.20;99.90
19552;DHT22;9921;47.186;9.778;2023-06-24T01:13:30;16.30;99.90
19552;DHT22;9921;47.186;9.778;2023-06-24T01:16:01;16.20;99.90
19552;DHT22;9921;47.186;9.778;2023-06-24T01:18:32;16.20;99.90
19552;DHT22;9921;47.186;9.778;2023-06-24T01:21:05;16.20;99.90
19552;DHT22;9921;47.186;9.778;2023-06-24T01:27:10;15.80;99.90
19552;DHT22;9921;47.186;9.778;2023-06-24T01:30:04;15.80;99.90
19552;DHT22;9921;47.186;9.778;2023-06-24T01:32:40;15.80;99.90
19552;DHT22;9921;47.186;9.778;2023-06-24T01:35:11;15.80;99.90
19552;DHT22;9921;47.186;9.778;2023-06-24T01:37:42;15.90;99.90
19552;DHT22;9921;47.186;9.778;2023-06-24T01:40:12;15.80;99.90
19552;DHT22;9921;47.186;9.778;2023-06-24T01:42:42;15.80;99.90
19552;DHT22;9921;47.186;9.778;2023-06-24T01:45:13;15.70;99.90
19552;DHT22;9921;47.186;9.778;2023-06-24T01:47:44;15.60;99.90
19552;DHT22;9921;47.186;9.778;2023-06-24T01:50:12;15.70;99.90
19552;DHT22;9921;47.186;9.778;2023-06-24T01:52:42;15.70;99.90
19552;DHT22;9921;47.186;9.778;2023-06-24T01:55:18;15.70;99.90
19552;DHT22;9921;47.186;9.778;2023-06-24T01:57:46;15.80;99.90
19552;DHT22;9921;47.186;9.778;2023-06-24T02:00:15;15.90;99.90
19552;DHT22;9921;47.186;9.778;2023-06-24T02:02:45;15.90;99.90
19552;DHT22;9921;47.186;9.778;2023-06-24T02:05:13;16.00;99.90
19552;DHT22;9921;47.186;9.778;2023-06-24T02:07:42;16.00;99.90
19552;DHT22;9921;47.186;9.778;2023-06-24T02:10:10;16.10;99.90
19552;DHT22;9921;47.186;9.778;2023-06-24T02:12:37;16.10;99.90
19552;DHT22;9921;47.186;9.778;2023-06-24T02:15:06;16.10;99.90
19552;DHT22;9921;47.186;9.778;2023-06-24T02:17:35;16.10;99.90
19552;DHT22;9921;47.186;9.778;2023-06-24T02:20:05;16.10;99.90
19552;DHT22;9921;47.186;9.778;2023-06-24T02:22:34;16.10;99.90
19552;DHT22;9921;47.186;9.778;2023-06-24T02:25:02;15.90;99.90
19552;DHT22;9921;47.186;9.778;2023-06-24T02:27:31;15.90;99.90
19552;DHT22;9921;47.186;9.778;2023-06-24T02:29:58;16.00;99.90
19552;DHT22;9921;47.186;9.778;2023-06-24T02:32:26;16.00;99.90
19552;DHT22;9921;47.186;9.778;2023-06-24T02:34:53;16.20;99.90
19552;DHT22;9921;47.186;9.778;2023-06-24T02:37:21;16.30;99.90
19552;DHT22;9921;47.186;9.778;2023-06-24T02:39:48;16.40;99.90
19552;DHT22;9921;47.186;9.778;2023-06-24T02:42:14;16.40;99.90
19552;DHT22;9921;47.186;9.778;2023-06-24T02:44:42;16.30;99.90
19552;DHT22;9921;47.186;9.778;2023-06-24T02:47:11;16.10;99.90
19552;DHT22;9921;47.186;9.778;2023-06-24T02:49:39;16.20;99.90
19552;DHT22;9921;47.186;9.778;2023-06-24T02:52:07;16.20;99.90
19552;DHT22;9921;47.186;9.778;2023-06-24T02:54:36;16.30;99.90
19552;DHT22;9921;47.186;9.778;2023-06-24T02:57:05;16.30;99.90
19552;DHT22;9921;47.186;9.778;2023-06-24T02:59:33;16.30;99.90
19552;DHT22;9921;47.186;9.778;2023-06-24T03:02:00;16.40;99.90
19552;DHT22;9921;47.186;9.778;2023-06-24T03:04:28;16.40;99.90
19552;DHT22;9921;47.186;9.778;2023-06-24T03:06:55;16.40;99.90
19552;DHT22;9921;47.186;9.778;2023-06-24T03:09:23;16.40;99.90
19552;DHT22;9921;47.186;9.778;2023-06-24T03:11:51;16.40;99.90
19552;DHT22;9921;47.186;9.778;2023-06-24T03:14:19;16.30;99.90
19552;DHT22;9921;47.186;9.778;2023-06-24T03:16:45;16.40;99.90
19552;DHT22;9921;47.186;9.778;2023-06-24T03:19:12;16.40;99.90
19552;DHT22;9921;47.186;9.778;2023-06-24T03:21:39;16.40;99.90
19552;DHT22;9921;47.186;9.778;2023-06-24T03:24:06;16.50;99.90
19552;DHT22;9921;47.186;9.778;2023-06-24T03:26:35;16.50;99.90
19552;DHT22;9921;47.186;9.778;2023-06-24T03:29:04;16.60;99.90
19552;DHT22;9921;47.186;9.778;2023-06-24T03:31:32;16.70;99.90
19552;DHT22;9921;47.186;9.778;2023-06-24T03:34:00;16.80;99.90
19552;DHT22;9921;47.186;9.778;2023-06-24T03:36:26;16.80;99.90
19552;DHT22;9921;47.186;9.778;2023-06-24T03:38:53;16.80;99.90
19552;DHT22;9921;47.186;9.778;2023-06-24T03:41:20;16.80;99.90
19552;DHT22;9921;47.186;9.778;2023-06-24T03:43:48;16.80;99.90
19552;DHT22;9921;47.186;9.778;2023-06-24T03:46:16;16.80;99.90
19552;DHT22;9921;47.186;9.778;2023-06-24T03:48:43;16.80;99.90
19552;DHT22;9921;47.186;9.778;2023-06-24T03:51:10;16.90;99.90
19552;DHT22;9921;47.186;9.778;2023-06-24T03:53:37;16.90;99.90
19552;DHT22;9921;47.186;9.778;2023-06-24T03:56:04;16.90;99.90
19552;DHT22;9921;47.186;9.778;2023-06-24T03:58:31;17.00;99.90
19552;DHT22;9921;47.186;9.778;2023-06-24T04:00:59;16.90;99.90
19552;DHT22;9921;47.186;9.778;2023-06-24T04:03:27;16.80;99.90
19552;DHT22;9921;47.186;9.778;2023-06-24T04:05:55;16.70;99.90
19552;DHT22;9921;47.186;9.778;2023-06-24T04:08:22;16.80;99.90
19552;DHT22;9921;47.186;9.778;2023-06-24T04:10:51;16.90;99.90
19552;DHT22;9921;47.186;9.778;2023-06-24T04:13:17;16.90;99.90
19552;DHT22;9921;47.186;9.778;2023-06-24T04:15:44;16.80;99.90
19552;DHT22;9921;47.186;9.778;2023-06-24T04:18:11;16.80;99.90
19552;DHT22;9921;47.186;9.778;2023-06-24T04:20:40;16.80;99.90
19552;DHT22;9921;47.186;9.778;2023-06-24T04:23:06;16.80;99.90
19552;DHT22;9921;47.186;9.778;2023-06-24T04:25:35;16.90;99.90
19552;DHT22;9921;47.186;9.778;2023-06-24T04:28:02;17.00;99.90
19552;DHT22;9921;47.186;9.778;2023-06-24T04:30:30;17.00;99.90
19552;DHT22;9921;47.186;9.778;2023-06-24T04:32:57;17.10;99.90
19552;DHT22;9921;47.186;9.778;2023-06-24T04:35:24;17.10;99.90
19552;DHT22;9921;47.186;9.778;2023-06-24T04:37:52;17.10;99.90
19552;DHT22;9921;47.186;9.778;2023-06-24T04:40:19;17.10;99.90
19552;DHT22;9921;47.186;9.778;2023-06-24T04:42:46;17.20;99.90
19552;DHT22;9921;47.186;9.778;2023-06-24T04:45:13;17.20;99.90
19552;DHT22;9921;47.186;9.778;2023-06-24T04:47:40;17.20;99.90
19552;DHT22;9921;47.186;9.778;2023-06-24T04:50:08;17.30;99.90
19552;DHT22;9921;47.186;9.778;2023-06-24T04:52:36;17.30;99.90
19552;DHT22;9921;47.186;9.778;2023-06-24T04:55:05;17.40;99.90
19552;DHT22;9921;47.186;9.778;2023-06-24T04:57:33;17.40;99.90
19552;DHT22;9921;47.186;9.778;2023-06-24T05:00:00;17.40;99.90
19552;DHT22;9921;47.186;9.778;2023-06-24T05:02:27;17.50;99.90
19552;DHT22;9921;47.186;9.778;2023-06-24T05:04:54;17.50;99.90
19552;DHT22;9921;47.186;9.778;2023-06-24T05:07:21;17.60;99.90
19552;DHT22;9921;47.186;9.778;2023-06-24T05:09:48;17.60;99.90
19552;DHT22;9921;47.186;9.778;2023-06-24T05:12:18;17.60;99.90
19552;DHT22;9921;47.186;9.778;2023-06-24T05:14:49;17.60;99.90
19552;DHT22;9921;47.186;9.778;2023-06-24T05:17:16;17.70;99.90
19552;DHT22;9921;47.186;9.778;2023-06-24T05:19:43;17.70;99.90
19552;DHT22;9921;47.186;9.778;2023-06-24T05:22:10;17.80;99.90
19552;DHT22;9921;47.186;9.778;2023-06-24T05:24:37;17.80;99.90
19552;DHT22;9921;47.186;9.778;2023-06-24T05:27:05;17.90;99.90
19552;DHT22;9921;47.186;9.778;2023-06-24T05:29:33;18.00;99.90
19552;DHT22;9921;47.186;9.778;2023-06-24T05:32:00;18.10;99.90
19552;DHT22;9921;47.186;9.778;2023-06-24T05:34:29;18.10;99.90
19552;DHT22;9921;47.186;9.778;2023-06-24T05:36:56;18.10;99.90
19552;DHT22;9921;47.186;9.778;2023-06-24T05:39:23;18.20;99.90
19552;DHT22;9921;47.186;9.778;2023-06-24T05:41:50;18.20;99.90
19552;DHT22;9921;47.186;9.778;2023-06-24T05:44:17;18.00;99.90
19552;DHT22;9921;47.186;9.778;2023-06-24T05:46:46;18.00;99.90
19552;DHT22;9921;47.186;9.778;2023-06-24T05:49:12;18.20;99.90
19552;DHT22;9921;47.186;9.778;2023-06-24T05:51:39;18.20;99.90
19552;DHT22;9921;47.186;9.778;2023-06-24T05:54:06;18.30;99.90
19552;DHT22;9921;47.186;9.778;2023-06-24T05:56:34;18.40;99.90
19552;DHT22;9921;47.186;9.778;2023-06-24T05:59:01;18.40;99.90
19552;DHT22;9921;47.186;9.778;2023-06-24T06:01:28;18.50;99.90
19552;DHT22;9921;47.186;9.778;2023-06-24T06:03:57;18.50;99.90
19552;DHT22;9921;47.186;9.778;2023-06-24T06:06:24;18.50;99.90
19552;DHT22;9921;47.186;9.778;2023-06-24T06:08:50;18.50;99.90
19552;DHT22;9921;47.186;9.778;2023-06-24T06:11:17;18.50;99.90
19552;DHT22;9921;47.186;9.778;2023-06-24T06:13:44;18.60;99.90
19552;DHT22;9921;47.186;9.778;2023-06-24T06:16:11;18.60;99.90
19552;DHT22;9921;47.186;9.778;2023-06-24T06:18:38;18.50;99.90
19552;DHT22;9921;47.186;9.778;2023-06-24T06:21:06;18.50;99.90
19552;DHT22;9921;47.186;9.778;2023-06-24T06:23:33;18.50;99.90
19552;DHT22;9921;47.186;9.778;2023-06-24T06:26:00;18.50;99.90
19552;DHT22;9921;47.186;9.778;2023-06-24T06:28:27;18.40;99.90
19552;DHT22;9921;47.186;9.778;2023-06-24T06:30:54;18.50;99.90
19552;DHT22;9921;47.186;9.778;2023-06-24T06:33:22;18.40;99.90
19552;DHT22;9921;47.186;9.778;2023-06-24T06:35:49;18.30;99.90
19552;DHT22;9921;47.186;9.778;2023-06-24T06:38:17;18.40;99.90
19552;DHT22;9921;47.186;9.778;2023-06-24T06:40:44;18.40;99.90
19552;DHT22;9921;47.186;9.778;2023-06-24T06:43:11;18.40;99.90
19552;DHT22;9921;47.186;9.778;2023-06-24T06:45:38;18.40;99.90
19552;DHT22;9921;47.186;9.778;2023-06-24T06:48:05;18.40;99.90
19552;DHT22;9921;47.186;9.778;2023-06-24T06:50:34;18.40;99.90
19552;DHT22;9921;47.186;9.778;2023-06-24T06:53:01;18.40;99.90
19552;DHT22;9921;47.186;9.778;2023-06-24T06:55:29;18.50;99.90
19552;DHT22;9921;47.186;9.778;2023-06-24T06:57:56;18.70;99.90
19552;DHT22;9921;47.186;9.778;2023-06-24T07:00:23;18.80;99.90
19552;DHT22;9921;47.186;9.778;2023-06-24T07:02:50;18.90;99.90
19552;DHT22;9921;47.186;9.778;2023-06-24T07:05:17;19.10;99.90
19552;DHT22;9921;47.186;9.778;2023-06-24T07:07:43;19.10;99.90
19552;DHT22;9921;47.186;9.778;2023-06-24T07:10:11;19.20;99.90
19552;DHT22;9921;47.186;9.778;2023-06-24T07:12:39;19.30;99.90
19552;DHT22;9921;47.186;9.778;2023-06-24T07:15:06;19.40;99.90
19552;DHT22;9921;47.186;9.778;2023-06-24T07:17:33;19.50;99.90
19552;DHT22;9921;47.186;9.778;2023-06-24T07:20:00;19.60;99.90
19552;DHT22;9921;47.186;9.778;2023-06-24T07:22:27;19.70;99.90
19552;DHT22;9921;47.186;9.778;2023-06-24T07:24:56;19.80;99.90
19552;DHT22;9921;47.186;9.778;2023-06-24T07:27:23;20.00;99.90
19552;DHT22;9921;47.186;9.778;2023-06-24T07:29:51;20.10;99.90
19552;DHT22;9921;47.186;9.778;2023-06-24T07:32:18;20.20;99.90
19552;DHT22;9921;47.186;9.778;2023-06-24T07:34:44;20.30;99.90
19552;DHT22;9921;47.186;9.778;2023-06-24T07:37:11;20.30;99.90
19552;DHT22;9921;47.186;9.778;2023-06-24T07:39:38;20.40;99.90
19552;DHT22;9921;47.186;9.778;2023-06-24T07:42:05;20.50;99.90
19552;DHT22;9921;47.186;9.778;2023-06-24T07:44:32;20.70;99.90
19552;DHT22;9921;47.186;9.778;2023-06-24T07:47:00;20.70;99.90
19552;DHT22;9921;47.186;9.778;2023-06-24T07:49:27;20.90;99.90
19552;DHT22;9921;47.186;9.778;2023-06-24T07:51:54;21.00;99.90
19552;DHT22;9921;47.186;9.778;2023-06-24T07:54:21;21.10;99.90
19552;DHT22;9921;47.186;9.778;2023-06-24T07:56:48;21.20;99.90
19552;DHT22;9921;47.186;9.778;2023-06-24T07:59:15;21.40;99.90
19552;DHT22;9921;47.186;9.778;2023-06-24T08:01:41;21.50;99.90
19552;DHT22;9921;47.186;9.778;2023-06-24T08:04:10;21.60;99.90
19552;DHT22;9921;47.186;9.778;2023-06-24T08:06:36;21.70;99.90
19552;DHT22;9921;47.186;9.778;2023-06-24T08:09:03;21.80;99.90
19552;DHT22;9921;47.186;9.778;2023-06-24T08:11:30;21.60;99.90
19552;DHT22;9921;47.186;9.778;2023-06-24T08:13:57;21.40;99.90
19552;DHT22;9921;47.186;9.778;2023-06-24T08:16:24;21.30;99.90
19552;DHT22;9921;47.186;9.778;2023-06-24T08:18:51;21.30;99.90
19552;DHT22;9921;47.186;9.778;2023-06-24T08:21:20;21.50;99.90
19552;DHT22;9921;47.186;9.778;2023-06-24T08:23:47;21.60;99.90
19552;DHT22;9921;47.186;9.778;2023-06-24T08:26:15;21.70;99.90
19552;DHT22;9921;47.186;9.778;2023-06-24T08:28:42;21.80;99.90
19552;DHT22;9921;47.186;9.778;2023-06-24T08:31:09;21.90;99.90
19552;DHT22;9921;47.186;9.778;2023-06-24T08:33:36;21.90;99.90
19552;DHT22;9921;47.186;9.778;2023-06-24T08:36:03;22.00;99.90
19552;DHT22;9921;47.186;9.778;2023-06-24T08:38:31;22.00;99.90
19552;DHT22;9921;47.186;9.778;2023-06-24T08:40:58;22.10;99.90
19552;DHT22;9921;47.186;9.778;2023-06-24T08:43:25;22.10;99.90
19552;DHT22;9921;47.186;9.778;2023-06-24T08:45:53;22.20;99.90
19552;DHT22;9921;47.186;9.778;2023-06-24T08:48:20;22.20;99.90
19552;DHT22;9921;47.186;9.778;2023-06-24T08:50:51;22.10;99.90
19552;DHT22;9921;47.186;9.778;2023-06-24T08:53:20;22.10;99.90
19552;DHT22;9921;47.186;9.778;2023-06-24T08:55:49;22.00;99.90
19552;DHT22;9921;47.186;9.778;2023-06-24T08:58:19;21.90;99.90
19552;DHT22;9921;47.186;9.778;2023-06-24T09:00:46;21.90;99.90
19552;DHT22;9921;47.186;9.778;2023-06-24T09:03:13;22.00;99.90
19552;DHT22;9921;47.186;9.778;2023-06-24T09:05:40;22.00;99.90
19552;DHT22;9921;47.186;9.778;2023-06-24T09:08:09;22.10;99.90
19552;DHT22;9921;47.186;9.778;2023-06-24T09:10:37;22.20;99.90
19552;DHT22;9921;47.186;9.778;2023-06-24T09:13:06;22.40;99.90
19552;DHT22;9921;47.186;9.778;2023-06-24T09:15:33;22.60;99.90
19552;DHT22;9921;47.186;9.778;2023-06-24T09:18:01;22.80;99.90
19552;DHT22;9921;47.186;9.778;2023-06-24T09:20:28;22.90;99.90
19552;DHT22;9921;47.186;9.778;2023-06-24T09:22:59;22.80;99.90
19552;DHT22;9921;47.186;9.778;2023-06-24T09:25:26;22.50;99.90
19552;DHT22;9921;47.186;9.778;2023-06-24T09:27:53;22.40;99.90
19552;DHT22;9921;47.186;9.778;2023-06-24T09:30:23;22.70;99.90
19552;DHT22;9921;47.186;9.778;2023-06-24T09:32:51;22.90;99.90
19552;DHT22;9921;47.186;9.778;2023-06-24T09:35:19;23.10;99.90
19552;DHT22;9921;47.186;9.778;2023-06-24T09:37:49;23.30;99.90
19552;DHT22;9921;47.186;9.778;2023-06-24T09:40:16;23.50;99.90
19552;DHT22;9921;47.186;9.778;2023-06-24T09:42:51;23.70;99.90
19552;DHT22;9921;47.186;9.778;2023-06-24T09:45:24;23.80;99.90
19552;DHT22;9921;47.186;9.778;2023-06-24T09:47:52;23.80;99.90
19552;DHT22;9921;47.186;9.778;2023-06-24T09:50:19;24.00;99.90
19552;DHT22;9921;47.186;9.778;2023-06-24T09:52:48;24.00;99.90
19552;DHT22;9921;47.186;9.778;2023-06-24T09:55:16;24.20;99.90
19552;DHT22;9921;47.186;9.778;2023-06-24T09:57:45;24.20;99.90
19552;DHT22;9921;47.186;9.778;2023-06-24T10:00:14;24.50;99.90
19552;DHT22;9921;47.186;9.778;2023-06-24T10:02:43;24.60;99.90
19552;DHT22;9921;47.186;9.778;2023-06-24T10:05:11;24.60;99.90
19552;DHT22;9921;47.186;9.778;2023-06-24T10:07:39;24.80;99.90
19552;DHT22;9921;47.186;9.778;2023-06-24T10:10:07;25.00;99.90
19552;DHT22;9921;47.186;9.778;2023-06-24T10:12:35;25.00;99.90
19552;DHT22;9921;47.186;9.778;2023-06-24T10:15:03;25.20;99.90
19552;DHT22;9921;47.186;9.778;2023-06-24T10:17:30;25.60;99.90
19552;DHT22;9921;47.186;9.778;2023-06-24T10:20:03;25.90;99.90
19552;DHT22;9921;47.186;9.778;2023-06-24T10:22:31;25.90;99.90
19552;DHT22;9921;47.186;9.778;2023-06-24T10:25:00;26.00;99.90
19552;DHT22;9921;47.186;9.778;2023-06-24T10:27:27;25.90;99.90
19552;DHT22;9921;47.186;9.778;2023-06-24T10:30:02;26.00;99.90
19552;DHT22;9921;47.186;9.778;2023-06-24T10:32:40;26.00;99.90
19552;DHT22;9921;47.186;9.778;2023-06-24T10:35:21;26.20;99.90
19552;DHT22;9921;47.186;9.778;2023-06-24T10:37:54;26.30;99.90
19552;DHT22;9921;47.186;9.778;2023-06-24T10:40:34;26.40;99.90
19552;DHT22;9921;47.186;9.778;2023-06-24T10:43:03;26.70;99.90
19552;DHT22;9921;47.186;9.778;2023-06-24T10:45:49;26.80;99.90
19552;DHT22;9921;47.186;9.778;2023-06-24T10:48:17;26.80;99.90
19552;DHT22;9921;47.186;9.778;2023-06-24T10:50:47;26.80;99.90
19552;DHT22;9921;47.186;9.778;2023-06-24T10:53:15;27.00;99.90
19552;DHT22;9921;47.186;9.778;2023-06-24T10:55:44;27.00;99.90
19552;DHT22;9921;47.186;9.778;2023-06-24T10:58:12;27.00;99.90
19552;DHT22;9921;47.186;9.778;2023-06-24T11:00:39;27.00;99.90
19552;DHT22;9921;47.186;9.778;2023-06-24T11:03:10;27.30;99.90
19552;DHT22;9921;47.186;9.778;2023-06-24T11:05:38;27.30;99.90
19552;DHT22;9921;47.186;9.778;2023-06-24T11:08:07;27.50;99.90
19552;DHT22;9921;47.186;9.778;2023-06-24T11:10:42;27.40;99.90
19552;DHT22;9921;47.186;9.778;2023-06-24T11:13:10;27.40;99.90
19552;DHT22;9921;47.186;9.778;2023-06-24T11:15:38;27.40;99.90
19552;DHT22;9921;47.186;9.778;2023-06-24T11:18:05;27.60;99.90
19552;DHT22;9921;47.186;9.778;2023-06-24T11:20:33;27.80;99.90
19552;DHT22;9921;47.186;9.778;2023-06-24T11:23:02;27.90;99.90
19552;DHT22;9921;47.186;9.778;2023-06-24T11:25:30;28.20;99.90
19552;DHT22;9921;47.186;9.778;2023-06-24T11:27:57;28.40;99.90
19552;DHT22;9921;47.186;9.778;2023-06-24T11:30:24;28.50;99.90
19552;DHT22;9921;47.186;9.778;2023-06-24T11:32:51;28.80;99.90
19552;DHT22;9921;47.186;9.778;2023-06-24T11:35:18;28.90;99.90
19552;DHT22;9921;47.186;9.778;2023-06-24T11:37:46;29.00;99.90
19552;DHT22;9921;47.186;9.778;2023-06-24T11:40:16;29.10;99.90
19552;DHT22;9921;47.186;9.778;2023-06-24T11:42:46;29.20;99.90
19552;DHT22;9921;47.186;9.778;2023-06-24T11:45:14;29.30;99.90
19552;DHT22;9921;47.186;9.778;2023-06-24T11:47:41;29.10;99.90
19552;DHT22;9921;47.186;9.778;2023-06-24T11:50:09;29.00;99.90
19552;DHT22;9921;47.186;9.778;2023-06-24T11:52:40;28.90;99.90
19552;DHT22;9921;47.186;9.778;2023-06-24T11:55:17;28.80;99.90
19552;DHT22;9921;47.186;9.778;2023-06-24T11:57:50;28.70;99.90
19552;DHT22;9921;47.186;9.778;2023-06-24T12:00:21;28.50;99.90
19552;DHT22;9921;47.186;9.778;2023-06-24T12:02:56;28.20;99.90
19552;DHT22;9921;47.186;9.778;2023-06-24T12:05:24;28.00;99.90
19552;DHT22;9921;47.186;9.778;2023-06-24T12:07:55;27.90;99.90
19552;DHT22;9921;47.186;9.778;2023-06-24T12:10:22;27.80;99.90
19552;DHT22;9921;47.186;9.778;2023-06-24T12:12:51;27.80;99.90
19552;DHT22;9921;47.186;9.778;2023-06-24T12:15:18;28.00;99.90
19552;DHT22;9921;47.186;9.778;2023-06-24T12:17:44;28.10;99.90
19552;DHT22;9921;47.186;9.778;2023-06-24T12:20:13;28.20;99.90
19552;DHT22;9921;47.186;9.778;2023-06-24T12:22:40;28.30;99.90
19552;DHT22;9921;47.186;9.778;2023-06-24T12:25:08;28.30;99.90
19552;DHT22;9921;47.186;9.778;2023-06-24T12:27:35;28.30;99.90
19552;DHT22;9921;47.186;9.778;2023-06-24T12:30:05;28.20;99.90
19552;DHT22;9921;47.186;9.778;2023-06-24T12:32:32;28.00;99.90
19552;DHT22;9921;47.186;9.778;2023-06-24T12:34:59;28.00;99.90
19552;DHT22;9921;47.186;9.778;2023-06-24T12:37:28;27.90;99.90
19552;DHT22;9921;47.186;9.778;2023-06-24T12:39:54;27.90;99.90
19552;DHT22;9921;47.186;9.778;2023-06-24T12:42:21;27.80;99.90
19552;DHT22;9921;47.186;9.778;2023-06-24T12:44:48;27.90;99.90
19552;DHT22;9921;47.186;9.778;2023-06-24T12:47:17;27.90;99.90
19552;DHT22;9921;47.186;9.778;2023-06-24T12:49:44;27.90;99.90
19552;DHT22;9921;47.186;9.778;2023-06-24T12:52:12;27.90;99.90
19552;DHT22;9921;47.186;9.778;2023-06-24T12:54:39;27.90;99.90
19552;DHT22;9921;47.186;9.778;2023-06-24T12:57:06;27.90;99.90
19552;DHT22;9921;47.186;9.778;2023-06-24T12:59:33;28.00;99.90
19552;DHT22;9921;47.186;9.778;2023-06-24T13:02:00;28.10;99.90
19552;DHT22;9921;47.186;9.778;2023-06-24T13:04:28;28.00;99.90
19552;DHT22;9921;47.186;9.778;2023-06-24T13:06:55;28.00;99.90
19552;DHT22;9921;47.186;9.778;2023-06-24T13:09:22;28.00;99.90
19552;DHT22;9921;47.186;9.778;2023-06-24T13:11:49;28.00;99.90
19552;DHT22;9921;47.186;9.778;2023-06-24T13:14:16;28.00;99.90
19552;DHT22;9921;47.186;9.778;2023-06-24T13:16:43;28.00;99.90
19552;DHT22;9921;47.186;9.778;2023-06-24T13:19:10;27.90;99.90
19552;DHT22;9921;47.186;9.778;2023-06-24T13:21:39;28.00;99.90
19552;DHT22;9921;47.186;9.778;2023-06-24T13:24:07;28.00;99.90
19552;DHT22;9921;47.186;9.778;2023-06-24T13:26:34;28.00;99.90
19552;DHT22;9921;47.186;9.778;2023-06-24T13:29:01;28.10;99.90
19552;DHT22;9921;47.186;9.778;2023-06-24T13:31:28;28.20;99.90
19552;DHT22;9921;47.186;9.778;2023-06-24T13:33:55;28.40;99.90
19552;DHT22;9921;47.186;9.778;2023-06-24T13:36:30;28.50;99.90
19552;DHT22;9921;47.186;9.778;2023-06-24T13:38:59;28.80;99.90
19552;DHT22;9921;47.186;9.778;2023-06-24T13:41:26;29.10;99.90
19552;DHT22;9921;47.186;9.778;2023-06-24T13:43:55;29.00;99.90
19552;DHT22;9921;47.186;9.778;2023-06-24T13:46:22;29.00;99.90
19552;DHT22;9921;47.186;9.778;2023-06-24T13:48:49;28.90;99.90
19552;DHT22;9921;47.186;9.778;2023-06-24T13:51:17;28.90;99.90
19552;DHT22;9921;47.186;9.778;2023-06-24T13:53:44;28.80;99.90
19552;DHT22;9921;47.186;9.778;2023-06-24T13:56:12;28.70;99.90
19552;DHT22;9921;47.186;9.778;2023-06-24T13:58:39;28.60;99.90
19552;DHT22;9921;47.186;9.778;2023-06-24T14:01:06;28.50;99.90
19552;DHT22;9921;47.186;9.778;2023-06-24T14:03:33;28.50;99.90
19552;DHT22;9921;47.186;9.778;2023-06-24T14:06:00;28.50;99.90
19552;DHT22;9921;47.186;9.778;2023-06-24T14:08:28;28.50;99.90
19552;DHT22;9921;47.186;9.778;2023-06-24T14:10:55;28.60;99.90
19552;DHT22;9921;47.186;9.778;2023-06-24T14:13:23;28.50;99.90
19552;DHT22;9921;47.186;9.778;2023-06-24T14:15:50;28.50;99.90
19552;DHT22;9921;47.186;9.778;2023-06-24T14:18:17;28.50;99.90
19552;DHT22;9921;47.186;9.778;2023-06-24T14:20:44;28.40;99.90
19552;DHT22;9921;47.186;9.778;2023-06-24T14:23:11;28.40;99.90
19552;DHT22;9921;47.186;9.778;2023-06-24T14:25:38;28.20;99.90
19552;DHT22;9921;47.186;9.778;2023-06-24T14:28:05;28.10;99.90
19552;DHT22;9921;47.186;9.778;2023-06-24T14:30:33;28.00;99.90
19552;DHT22;9921;47.186;9.778;2023-06-24T14:33:00;27.80;99.90
19552;DHT22;9921;47.186;9.778;2023-06-24T14:35:27;27.70;99.90
19552;DHT22;9921;47.186;9.778;2023-06-24T14:37:54;27.60;99.90
19552;DHT22;9921;47.186;9.778;2023-06-24T14:40:21;27.50;99.90
19552;DHT22;9921;47.186;9.778;2023-06-24T14:42:48;27.60;99.90
19552;DHT22;9921;47.186;9.778;2023-06-24T14:45:15;27.50;99.90
19552;DHT22;9921;47.186;9.778;2023-06-24T14:47:44;27.50;99.90
19552;DHT22;9921;47.186;9.778;2023-06-24T14:50:11;27.50;99.90
19552;DHT22;9921;47.186;9.778;2023-06-24T14:52:38;27.50;99.90
19552;DHT22;9921;47.186;9.778;2023-06-24T14:55:05;27.50;99.90
19552;DHT22;9921;47.186;9.778;2023-06-24T14:57:32;27.40;99.90
19552;DHT22;9921;47.186;9.778;2023-06-24T14:59:59;27.30;99.90
19552;DHT22;9921;47.186;9.778;2023-06-24T15:02:26;27.20;99.90
19552;DHT22;9921;47.186;9.778;2023-06-24T15:04:54;27.20;99.90
19552;DHT22;9921;47.186;9.778;2023-06-24T15:07:21;27.10;99.90
19552;DHT22;9921;47.186;9.778;2023-06-24T15:09:48;27.10;99.90
19552;DHT22;9921;47.186;9.778;2023-06-24T15:12:15;26.90;99.90
19552;DHT22;9921;47.186;9.778;2023-06-24T15:14:42;26.80;99.90
19552;DHT22;9921;47.186;9.778;2023-06-24T15:17:10;26.80;99.90
19552;DHT22;9921;47.186;9.778;2023-06-24T15:19:37;26.70;99.90
19552;DHT22;9921;47.186;9.778;2023-06-24T15:22:05;26.70;99.90
19552;DHT22;9921;47.186;9.778;2023-06-24T15:24:32;26.70;99.90
19552;DHT22;9921;47.186;9.778;2023-06-24T15:26:59;26.70;99.90
19552;DHT22;9921;47.186;9.778;2023-06-24T15:29:26;26.60;99.90
19552;DHT22;9921;47.186;9.778;2023-06-24T15:31:53;26.50;99.90
19552;DHT22;9921;47.186;9.778;2023-06-24T15:34:20;26.50;99.90
19552;DHT22;9921;47.186;9.778;2023-06-24T15:36:46;26.40;99.90
19552;DHT22;9921;47.186;9.778;2023-06-24T15:39:15;26.40;99.90
19552;DHT22;9921;47.186;9.778;2023-06-24T15:41:46;26.30;99.90
19552;DHT22;9921;47.186;9.778;2023-06-24T15:44:15;26.30;99.90
19552;DHT22;9921;47.186;9.778;2023-06-24T15:46:42;26.30;99.90
19552;DHT22;9921;47.186;9.778;2023-06-24T15:49:10;26.20;99.90
19552;DHT22;9921;47.186;9.778;2023-06-24T15:51:36;26.20;99.90
19552;DHT22;9921;47.186;9.778;2023-06-24T15:54:03;26.20;99.90